Time;durP1;ratioP1;P1;durP2;ratioP2;P2;SDS_P1;SDS_P2;PMS_P1;PMS_P2;Temp;Humidity;BMP_temperature;BMP_pressure;BME280_temperature;BME280_humidity;BME280_pressure;Samples;Min_cycle;Max_cycle;Signal;HPM_P1;HPM_P2
2023/05/30 00:01:46;;;;;;;6.97;1.75;;;11.20;99.90;;;;;;5052028;28;20470;-82
2023/05/30 00:04:11;;;;;;;11.18;1.52;;;11.20;99.90;;;;;;5052171;28;20079;-81
2023/05/30 00:06:37;;;;;;;9.68;1.63;;;11.20;99.90;;;;;;5051426;28;20086;-81
2023/05/30 00:09:03;;;;;;;5.05;1.92;;;11.20;99.90;;;;;;5068841;28;20156;-81
2023/05/30 00:11:29;;;;;;;6.10;2.25;;;11.20;99.90;;;;;;5068038;28;20044;-82
2023/05/30 00:13:56;;;;;;;6.63;1.50;;;11.20;99.90;;;;;;5051406;28;20044;-81
2023/05/30 00:16:23;;;;;;;3.83;1.42;;;11.20;99.90;;;;;;5035914;28;20036;-82
2023/05/30 00:18:49;;;;;;;6.07;1.48;;;11.20;99.90;;;;;;5051406;28;20399;-81
2023/05/30 00:21:17;;;;;;;5.70;1.40;;;11.30;99.90;;;;;;5051389;28;20051;-81
2023/05/30 00:23:44;;;;;;;8.90;1.83;;;11.20;99.90;;;;;;5067561;28;20044;-81
2023/05/30 00:26:11;;;;;;;3.30;1.27;;;11.60;99.90;;;;;;5068649;28;20506;-81
2023/05/30 00:28:37;;;;;;;7.35;1.60;;;11.10;99.90;;;;;;5051431;28;20127;-81
2023/05/30 00:31:03;;;;;;;5.05;1.48;;;11.10;99.90;;;;;;5067375;28;20048;-81
2023/05/30 00:33:29;;;;;;;5.63;1.23;;;11.00;99.90;;;;;;5051001;28;20043;-81
2023/05/30 00:35:54;;;;;;;8.60;1.88;;;11.10;99.90;;;;;;5067500;28;20044;-81
2023/05/30 00:38:20;;;;;;;12.35;1.70;;;11.10;99.90;;;;;;5067796;28;20040;-81
2023/05/30 00:40:46;;;;;;;9.98;1.48;;;11.30;99.90;;;;;;5050685;28;20080;-82
2023/05/30 00:43:12;;;;;;;14.50;1.98;;;11.10;99.90;;;;;;5051077;28;20048;-82
2023/05/30 00:45:38;;;;;;;8.38;1.60;;;11.10;99.90;;;;;;5051261;28;20047;-81
2023/05/30 00:48:05;;;;;;;7.60;1.85;;;11.20;99.90;;;;;;5067012;28;20226;-81
2023/05/30 00:50:32;;;;;;;8.82;1.35;;;11.10;99.90;;;;;;5067164;28;20044;-81
2023/05/30 00:52:59;;;;;;;9.38;1.70;;;11.10;99.90;;;;;;5067188;28;20060;-82
2023/05/30 00:55:27;;;;;;;10.95;1.58;;;11.10;99.90;;;;;;5068107;28;20257;-82
2023/05/30 00:57:53;;;;;;;11.13;1.83;;;11.10;99.90;;;;;;5050444;28;20044;-81
2023/05/30 01:00:19;;;;;;;5.43;1.13;;;11.10;99.90;;;;;;5050848;28;20048;-82
2023/05/30 01:02:46;;;;;;;5.57;1.33;;;11.10;99.90;;;;;;5067403;28;20036;-82
2023/05/30 01:05:14;;;;;;;6.43;1.20;;;11.10;99.90;;;;;;5067384;28;20044;-81
2023/05/30 01:07:43;;;;;;;6.18;1.35;;;11.10;99.90;;;;;;5066974;28;20044;-81
2023/05/30 01:10:11;;;;;;;6.25;1.73;;;11.20;99.90;;;;;;5067136;28;20109;-82
2023/05/30 01:12:56;;;;;;;6.47;1.30;;;11.10;99.90;;;;;;5050967;28;20044;-81
2023/05/30 01:15:28;;;;;;;5.32;1.38;;;11.10;99.90;;;;;;5050466;28;20128;-81
2023/05/30 01:18:17;;;;;;;4.70;1.47;;;11.10;99.90;;;;;;5067509;28;20052;-82
2023/05/30 01:20:47;;;;;;;8.95;2.10;;;11.10;99.90;;;;;;5067809;28;20332;-81
2023/05/30 01:23:37;;;;;;;6.03;1.70;;;11.10;99.90;;;;;;5066714;28;20081;-82
2023/05/30 01:26:13;;;;;;;5.93;1.13;;;11.10;99.90;;;;;;5050174;28;20047;-81
2023/05/30 01:28:40;;;;;;;7.53;1.45;;;11.00;99.90;;;;;;5067367;28;20048;-81
2023/05/30 01:31:08;;;;;;;7.57;1.65;;;11.00;99.90;;;;;;5050151;28;20052;-82
2023/05/30 01:33:35;;;;;;;7.60;1.75;;;11.10;99.90;;;;;;5050341;28;20059;-81
2023/05/30 01:36:01;;;;;;;6.80;2.20;;;11.10;99.90;;;;;;5049926;28;20272;-81
2023/05/30 01:38:27;;;;;;;6.70;1.58;;;11.10;99.90;;;;;;5067010;28;20309;-81
2023/05/30 01:40:59;;;;;;;8.48;2.00;;;11.10;99.90;;;;;;5050160;28;20052;-81
2023/05/30 01:43:34;;;;;;;8.97;1.27;;;11.10;99.90;;;;;;5050400;28;20032;-82
2023/05/30 01:46:20;;;;;;;10.18;2.08;;;11.10;99.90;;;;;;5084431;28;20282;-82
2023/05/30 01:48:58;;;;;;;8.00;1.58;;;11.10;99.90;;;;;;5066326;28;20047;-82
2023/05/30 01:51:34;;;;;;;13.40;2.28;;;11.50;99.90;;;;;;5067023;28;20407;-81
2023/05/30 01:54:04;;;;;;;6.97;1.55;;;11.10;99.90;;;;;;5066449;28;20105;-81
2023/05/30 01:56:31;;;;;;;6.35;1.77;;;11.10;99.90;;;;;;5065897;28;20059;-81
2023/05/30 01:58:59;;;;;;;8.32;2.00;;;11.10;99.90;;;;;;5049529;28;20561;-82
2023/05/30 02:01:28;;;;;;;10.32;2.42;;;11.10;99.90;;;;;;5066605;28;20048;-82
2023/05/30 02:03:54;;;;;;;5.85;2.03;;;11.10;99.90;;;;;;5065772;28;20079;-82
2023/05/30 02:06:21;;;;;;;13.38;1.90;;;11.10;99.90;;;;;;5032815;28;20079;-81
2023/05/30 02:08:47;;;;;;;6.95;2.03;;;11.10;99.90;;;;;;5050047;28;20431;-82
2023/05/30 02:11:12;;;;;;;8.10;1.73;;;11.10;99.90;;;;;;5032661;28;20036;-82
2023/05/30 02:13:38;;;;;;;8.57;2.20;;;11.10;99.90;;;;;;5048886;28;20134;-81
2023/05/30 02:16:05;;;;;;;13.95;2.13;;;11.20;99.90;;;;;;5049201;28;20040;-82
2023/05/30 02:18:31;;;;;;;9.25;1.85;;;11.10;99.90;;;;;;5066166;28;20048;-81
2023/05/30 02:20:56;;;;;;;12.75;1.90;;;11.10;99.90;;;;;;5066117;28;20514;-82
2023/05/30 02:23:23;;;;;;;15.60;2.78;;;11.10;99.90;;;;;;5032405;28;20063;-81
2023/05/30 02:25:49;;;;;;;6.05;2.08;;;11.10;99.90;;;;;;5049802;28;20036;-82
2023/05/30 02:28:14;;;;;;;9.32;1.48;;;11.10;99.90;;;;;;5049124;28;20047;-81
2023/05/30 02:30:40;;;;;;;13.00;1.88;;;11.10;99.90;;;;;;5049232;28;20136;-81
2023/05/30 02:33:06;;;;;;;7.15;1.80;;;11.10;99.90;;;;;;5049078;28;20054;-81
2023/05/30 02:35:31;;;;;;;8.70;1.77;;;11.10;99.90;;;;;;5031967;28;20043;-81
2023/05/30 02:37:57;;;;;;;9.52;2.22;;;11.10;99.90;;;;;;5033082;28;20090;-82
2023/05/30 02:40:23;;;;;;;9.20;1.60;;;11.10;99.90;;;;;;5066131;28;20486;-81
2023/05/30 02:42:49;;;;;;;7.90;1.85;;;11.10;99.90;;;;;;5065568;28;20050;-82
2023/05/30 02:45:15;;;;;;;6.68;1.40;;;11.10;99.90;;;;;;5066427;28;20139;-82
2023/05/30 02:47:41;;;;;;;9.93;2.00;;;11.10;99.90;;;;;;5048670;28;20464;-81
2023/05/30 02:50:07;;;;;;;12.25;2.38;;;11.10;99.90;;;;;;5049037;28;20389;-82
2023/05/30 02:52:32;;;;;;;12.25;2.10;;;11.10;99.90;;;;;;5064895;28;20131;-81
2023/05/30 02:54:58;;;;;;;8.98;1.70;;;11.50;99.90;;;;;;5049295;28;20122;-81
2023/05/30 02:57:24;;;;;;;7.38;1.63;;;11.10;99.90;;;;;;5048662;28;20538;-81
2023/05/30 02:59:51;;;;;;;10.45;1.90;;;11.10;99.90;;;;;;5048526;28;20483;-81
2023/05/30 03:02:16;;;;;;;5.47;2.10;;;10.60;99.90;;;;;;5032620;28;20444;-82
2023/05/30 03:04:45;;;;;;;10.18;2.00;;;11.10;99.90;;;;;;5064903;28;20036;-82
2023/05/30 03:07:12;;;;;;;10.95;2.22;;;11.10;99.90;;;;;;5065242;28;20048;-81
2023/05/30 03:09:41;;;;;;;5.90;1.83;;;11.10;99.90;;;;;;5065172;28;20055;-80
2023/05/30 03:12:07;;;;;;;6.75;2.03;;;11.10;99.90;;;;;;5065377;28;20048;-81
2023/05/30 03:14:33;;;;;;;9.75;2.00;;;11.10;99.90;;;;;;5064995;28;20070;-81
2023/05/30 03:16:58;;;;;;;7.53;1.73;;;11.40;99.90;;;;;;5068076;28;20093;-80
2023/05/30 03:19:24;;;;;;;8.57;2.70;;;11.30;99.90;;;;;;5053253;28;20044;-81
2023/05/30 03:21:51;;;;;;;7.53;2.00;;;11.10;99.90;;;;;;5068823;28;20463;-81
2023/05/30 03:24:17;;;;;;;7.88;2.15;;;11.10;99.90;;;;;;5069408;28;20051;-80
2023/05/30 03:26:42;;;;;;;12.30;1.75;;;11.10;99.90;;;;;;5068612;28;20127;-80
2023/05/30 03:29:08;;;;;;;5.05;1.80;;;11.10;99.90;;;;;;5036366;28;20051;-80
2023/05/30 03:31:35;;;;;;;4.68;1.58;;;11.10;99.90;;;;;;5052390;28;20325;-80
2023/05/30 03:34:01;;;;;;;9.55;2.30;;;11.10;99.90;;;;;;5035893;28;20054;-80
2023/05/30 03:36:27;;;;;;;7.35;1.83;;;11.90;99.90;;;;;;5052748;28;20093;-80
2023/05/30 03:38:56;;;;;;;7.70;1.85;;;11.10;99.90;;;;;;5051968;28;20043;-79
2023/05/30 03:41:22;;;;;;;10.50;2.40;;;11.10;99.90;;;;;;5068705;28;20044;-81
2023/05/30 03:43:48;;;;;;;14.40;2.55;;;11.80;99.90;;;;;;5052141;28;20047;-80
2023/05/30 03:46:16;;;;;;;10.18;2.80;;;11.10;99.90;;;;;;5051680;28;20384;-80
2023/05/30 03:48:42;;;;;;;13.38;2.67;;;11.20;99.90;;;;;;5069503;28;20044;-78
2023/05/30 03:51:08;;;;;;;5.85;1.98;;;11.20;99.90;;;;;;5051529;28;20044;-80
2023/05/30 03:53:34;;;;;;;10.13;2.45;;;11.20;99.90;;;;;;5036332;28;20551;-81
2023/05/30 03:56:00;;;;;;;9.23;1.80;;;11.20;99.90;;;;;;5051650;28;20048;-80
2023/05/30 03:58:25;;;;;;;10.43;1.75;;;11.30;99.90;;;;;;5052538;28;20058;-80
2023/05/30 04:00:51;;;;;;;8.45;1.92;;;11.20;99.90;;;;;;5051611;28;20040;-80
2023/05/30 04:03:19;;;;;;;13.10;2.25;;;11.30;99.90;;;;;;5035394;28;20498;-80
2023/05/30 04:05:47;;;;;;;7.25;1.65;;;11.30;99.90;;;;;;5051945;28;20096;-80
2023/05/30 04:08:13;;;;;;;5.97;1.58;;;11.30;99.90;;;;;;5035724;28;20364;-80
2023/05/30 04:10:40;;;;;;;11.07;2.08;;;11.40;99.90;;;;;;5068600;28;20044;-81
2023/05/30 04:13:06;;;;;;;4.50;1.48;;;11.30;99.90;;;;;;5086674;28;20125;-80
2023/05/30 04:15:33;;;;;;;7.43;1.58;;;11.40;99.90;;;;;;5068600;28;20515;-80
2023/05/30 04:18:01;;;;;;;8.43;1.65;;;11.90;99.90;;;;;;5085822;28;20040;-81
2023/05/30 04:20:27;;;;;;;6.95;1.60;;;12.90;99.90;;;;;;5086275;28;20161;-80
2023/05/30 04:22:52;;;;;;;6.57;1.80;;;11.50;99.90;;;;;;5068615;28;20048;-81
2023/05/30 04:25:19;;;;;;;7.70;1.80;;;11.50;99.90;;;;;;5068466;28;20437;-81
2023/05/30 04:27:46;;;;;;;11.35;1.92;;;11.40;99.90;;;;;;5086539;28;20046;-79
2023/05/30 04:30:12;;;;;;;11.38;1.60;;;11.50;99.90;;;;;;5052360;28;20117;-80
2023/05/30 04:32:39;;;;;;;7.15;2.05;;;11.50;99.90;;;;;;5068496;28;20059;-80
2023/05/30 04:35:07;;;;;;;8.07;1.70;;;11.50;99.90;;;;;;5085278;28;20495;-80
2023/05/30 04:37:33;;;;;;;19.23;3.00;;;11.50;99.90;;;;;;5086050;28;20511;-81
2023/05/30 04:40:00;;;;;;;8.10;1.48;;;11.50;99.90;;;;;;5068096;28;20317;-80
2023/05/30 04:42:29;;;;;;;8.98;1.75;;;11.70;99.90;;;;;;5067509;28;20047;-81
2023/05/30 04:44:55;;;;;;;6.03;2.17;;;11.50;99.90;;;;;;5086953;28;20101;-80
2023/05/30 04:47:24;;;;;;;6.90;1.85;;;11.60;99.90;;;;;;5068575;28;20040;-80
2023/05/30 04:49:53;;;;;;;6.45;2.28;;;11.60;99.90;;;;;;5069261;28;20062;-81
2023/05/30 04:52:20;;;;;;;10.25;1.75;;;11.50;99.90;;;;;;5085616;28;20518;-83
2023/05/30 04:54:45;;;;;;;5.60;1.55;;;11.60;99.90;;;;;;5067628;28;20135;-80
2023/05/30 04:57:12;;;;;;;7.57;1.50;;;11.60;99.90;;;;;;5067540;28;20135;-81
2023/05/30 04:59:39;;;;;;;9.32;1.75;;;11.60;99.90;;;;;;5066972;28;20048;-80
2023/05/30 05:02:05;;;;;;;5.78;1.45;;;11.60;99.90;;;;;;5068930;28;20048;-80
2023/05/30 05:04:31;;;;;;;11.40;1.70;;;11.60;99.90;;;;;;5067114;28;20040;-80
2023/05/30 05:06:57;;;;;;;5.60;1.33;;;11.70;99.90;;;;;;5051869;28;20044;-81
2023/05/30 05:09:24;;;;;;;5.95;1.27;;;11.60;99.90;;;;;;5066986;28;20043;-80
2023/05/30 05:11:53;;;;;;;6.97;1.80;;;11.60;99.90;;;;;;5067596;28;20090;-80
2023/05/30 05:14:19;;;;;;;5.63;1.30;;;11.60;99.90;;;;;;5066892;28;20047;-79
2023/05/30 05:16:45;;;;;;;7.88;1.92;;;11.70;99.90;;;;;;5050226;28;20040;-81
2023/05/30 05:19:10;;;;;;;5.10;1.00;;;11.70;99.90;;;;;;5051452;28;20507;-80
2023/05/30 05:21:36;;;;;;;4.93;1.42;;;11.70;99.90;;;;;;5083834;28;20491;-81
2023/05/30 05:24:03;;;;;;;4.88;1.25;;;11.70;99.90;;;;;;5051689;28;20040;-80
2023/05/30 05:26:28;;;;;;;7.97;1.67;;;11.70;99.90;;;;;;5049243;28;20471;-83
2023/05/30 05:28:56;;;;;;;5.00;1.52;;;11.70;99.90;;;;;;5050201;28;20052;-83
2023/05/30 05:31:22;;;;;;;4.13;1.40;;;11.70;99.90;;;;;;5066923;28;20119;-79
2023/05/30 05:33:48;;;;;;;6.25;1.50;;;11.80;99.90;;;;;;5084386;28;20091;-79
2023/05/30 05:36:14;;;;;;;10.88;3.33;;;11.80;99.90;;;;;;5085932;28;20064;-79
2023/05/30 05:38:40;;;;;;;9.30;2.22;;;11.70;99.90;;;;;;5066150;28;20047;-79
2023/05/30 05:41:05;;;;;;;5.90;1.20;;;11.70;99.90;;;;;;5050879;28;20136;-80
2023/05/30 05:43:31;;;;;;;3.28;1.30;;;11.70;99.90;;;;;;5065833;28;20047;-79
2023/05/30 05:45:57;;;;;;;4.28;1.52;;;11.80;99.90;;;;;;5085855;28;20389;-79
2023/05/30 05:48:23;;;;;;;8.23;1.40;;;10.10;99.90;;;;;;5066138;28;20086;-79
2023/05/30 05:50:48;;;;;;;7.80;1.90;;;11.80;99.90;;;;;;5066917;28;20403;-79
2023/05/30 05:53:14;;;;;;;3.65;1.42;;;11.80;99.90;;;;;;5066819;28;20151;-79
2023/05/30 05:55:40;;;;;;;8.50;1.58;;;11.80;99.90;;;;;;5083966;28;20484;-79
2023/05/30 05:58:06;;;;;;;4.18;1.30;;;11.80;99.90;;;;;;5085787;28;20056;-80
2023/05/30 06:00:35;;;;;;;8.60;1.25;;;11.80;99.90;;;;;;5065067;28;20486;-79
2023/05/30 06:03:00;;;;;;;2.88;1.25;;;11.80;99.90;;;;;;5067202;28;20044;-79
2023/05/30 06:05:26;;;;;;;10.75;1.17;;;11.80;99.90;;;;;;5049939;28;20044;-79
2023/05/30 06:07:52;;;;;;;10.45;1.38;;;11.80;99.90;;;;;;5066306;28;20456;-79
2023/05/30 06:10:17;;;;;;;7.45;0.90;;;11.90;99.90;;;;;;5066279;28;20521;-79
2023/05/30 06:12:45;;;;;;;4.55;1.20;;;11.90;99.90;;;;;;5083635;28;20428;-79
2023/05/30 06:15:12;;;;;;;2.13;1.08;;;11.80;99.90;;;;;;5067135;28;20508;-79
2023/05/30 06:17:38;;;;;;;5.15;1.30;;;11.80;99.90;;;;;;5083306;28;20044;-80
2023/05/30 06:20:04;;;;;;;6.03;1.60;;;11.80;99.90;;;;;;5067410;28;20048;-81
2023/05/30 06:22:30;;;;;;;3.63;1.15;;;11.80;99.90;;;;;;5066212;28;20062;-81
2023/05/30 06:24:56;;;;;;;4.53;0.93;;;11.80;99.90;;;;;;5066240;28;20480;-81
2023/05/30 06:27:21;;;;;;;3.47;0.80;;;11.80;99.90;;;;;;5084383;28;20071;-81
2023/05/30 06:29:47;;;;;;;7.80;1.30;;;11.80;99.90;;;;;;5048965;28;20058;-81
2023/05/30 06:32:13;;;;;;;6.35;1.00;;;11.80;99.90;;;;;;5066908;28;20475;-81
2023/05/30 06:34:39;;;;;;;5.43;1.45;;;11.80;99.90;;;;;;5047784;28;20491;-81
2023/05/30 06:37:05;;;;;;;2.03;1.00;;;11.80;99.90;;;;;;5066952;28;20043;-81
2023/05/30 06:39:31;;;;;;;2.50;0.90;;;11.80;99.90;;;;;;5064752;28;20035;-81
2023/05/30 06:41:56;;;;;;;4.55;1.38;;;11.80;99.90;;;;;;5066898;28;20115;-81
2023/05/30 06:44:22;;;;;;;9.07;1.95;;;11.90;99.90;;;;;;5065632;28;20044;-81
2023/05/30 06:46:48;;;;;;;7.45;1.40;;;11.90;99.90;;;;;;5015562;28;20044;-81
2023/05/30 06:49:13;;;;;;;3.35;1.02;;;11.90;99.90;;;;;;5032989;28;20051;-81
2023/05/30 06:51:39;;;;;;;3.90;1.55;;;12.00;99.90;;;;;;5047984;28;20748;-81
2023/05/30 06:54:05;;;;;;;5.63;1.30;;;12.00;99.90;;;;;;5050604;28;20525;-81
2023/05/30 06:56:31;;;;;;;6.25;1.38;;;12.00;99.90;;;;;;5064425;28;20070;-81
2023/05/30 06:58:57;;;;;;;1.90;1.10;;;12.10;99.90;;;;;;5066596;28;20157;-81
2023/05/30 07:01:22;;;;;;;4.47;0.93;;;12.10;99.90;;;;;;5048140;28;20036;-81
2023/05/30 07:03:48;;;;;;;7.07;1.40;;;12.20;99.90;;;;;;5049165;28;20032;-80
2023/05/30 07:06:14;;;;;;;3.97;1.23;;;12.20;99.90;;;;;;5049117;28;20463;-81
2023/05/30 07:08:39;;;;;;;5.75;1.55;;;12.20;99.90;;;;;;5047847;28;20043;-81
2023/05/30 07:11:06;;;;;;;5.72;1.15;;;12.30;99.90;;;;;;5066304;28;20444;-80
2023/05/30 07:13:32;;;;;;;8.40;1.00;;;12.90;99.90;;;;;;5063562;28;20044;-81
2023/05/30 07:15:58;;;;;;;4.82;1.08;;;12.30;99.90;;;;;;5066831;28;20055;-81
2023/05/30 07:18:23;;;;;;;5.40;0.98;;;12.30;99.90;;;;;;5048368;28;20094;-81
2023/05/30 07:20:49;;;;;;;5.53;1.30;;;12.30;99.90;;;;;;5065978;28;20522;-81
2023/05/30 07:23:15;;;;;;;3.17;1.17;;;12.40;99.90;;;;;;5049367;28;20119;-81
2023/05/30 07:25:41;;;;;;;3.45;0.90;;;12.20;99.90;;;;;;5064109;28;20123;-80
2023/05/30 07:28:06;;;;;;;9.20;4.13;;;12.10;99.90;;;;;;5049817;28;20078;-80
2023/05/30 07:30:32;;;;;;;2.13;1.17;;;12.20;99.90;;;;;;5063360;28;20051;-80
2023/05/30 07:32:58;;;;;;;3.70;1.42;;;12.20;99.90;;;;;;5066264;28;20238;-80
2023/05/30 07:35:24;;;;;;;4.80;1.02;;;11.50;99.90;;;;;;5048045;28;20134;-80
2023/05/30 07:37:53;;;;;;;2.85;1.00;;;12.30;99.90;;;;;;5049311;28;20455;-80
2023/05/30 07:40:19;;;;;;;2.50;0.85;;;12.40;99.90;;;;;;5049350;28;20044;-79
2023/05/30 07:42:47;;;;;;;1.33;0.65;;;12.30;99.90;;;;;;5047500;28;20173;-80
2023/05/30 07:45:16;;;;;;;1.35;0.63;;;12.40;99.90;;;;;;5050533;28;20071;-80
2023/05/30 07:47:41;;;;;;;3.45;0.85;;;13.30;99.90;;;;;;5046879;28;20040;-80
2023/05/30 07:50:08;;;;;;;4.13;0.63;;;12.50;99.90;;;;;;5033313;28;20044;-80
2023/05/30 07:52:34;;;;;;;2.85;0.90;;;12.60;99.90;;;;;;5047772;28;20040;-80
2023/05/30 07:54:59;;;;;;;1.42;0.68;;;12.60;99.90;;;;;;5064875;28;20549;-80
2023/05/30 07:57:25;;;;;;;2.42;0.63;;;13.80;99.90;;;;;;5045161;28;20110;-80
2023/05/30 07:59:51;;;;;;;2.40;0.88;;;12.80;99.90;;;;;;5044142;28;20056;-79
2023/05/30 08:02:18;;;;;;;4.05;0.90;;;12.70;99.90;;;;;;5046296;28;20411;-80
2023/05/30 08:04:44;;;;;;;1.23;0.68;;;12.80;99.90;;;;;;5047209;28;20048;-80
2023/05/30 08:07:09;;;;;;;2.95;0.93;;;12.80;99.90;;;;;;5050020;28;20389;-80
2023/05/30 08:09:36;;;;;;;2.55;0.73;;;12.90;99.90;;;;;;5064094;28;20544;-80
2023/05/30 08:12:05;;;;;;;3.38;0.73;;;12.90;99.90;;;;;;5065370;28;20060;-80
2023/05/30 08:14:32;;;;;;;2.67;0.90;;;12.90;99.90;;;;;;5031858;28;20048;-80
2023/05/30 08:16:57;;;;;;;4.63;0.90;;;12.90;99.90;;;;;;5030793;28;20041;-80
2023/05/30 08:19:23;;;;;;;2.70;0.70;;;12.90;99.90;;;;;;5049127;28;20045;-80
2023/05/30 08:21:49;;;;;;;3.25;1.42;;;12.90;99.90;;;;;;5063578;28;20036;-80
2023/05/30 08:24:17;;;;;;;2.78;0.93;;;12.90;99.90;;;;;;5049537;28;20059;-80
2023/05/30 08:26:44;;;;;;;2.42;0.80;;;13.00;99.90;;;;;;5063568;28;20048;-80
2023/05/30 08:29:11;;;;;;;4.10;1.40;;;13.10;99.90;;;;;;5065491;28;20049;-80
2023/05/30 08:31:37;;;;;;;4.93;1.13;;;13.10;99.90;;;;;;5065283;28;20084;-80
2023/05/30 08:34:03;;;;;;;4.00;0.65;;;13.30;99.90;;;;;;5064264;28;20129;-80
2023/05/30 08:36:29;;;;;;;1.63;0.45;;;13.50;99.90;;;;;;5049292;28;20079;-80
2023/05/30 08:38:55;;;;;;;0.60;0.25;;;13.90;99.90;;;;;;5063070;28;20059;-81
2023/05/30 08:41:22;;;;;;;0.38;0.20;;;14.10;99.90;;;;;;5049529;28;20040;-80
2023/05/30 08:43:49;;;;;;;1.52;0.28;;;14.30;99.90;;;;;;5063201;28;20512;-80
2023/05/30 08:46:16;;;;;;;1.73;0.32;;;14.40;99.90;;;;;;5065544;28;20041;-81
2023/05/30 08:48:44;;;;;;;1.20;0.20;;;14.50;99.90;;;;;;5063869;28;20484;-80
2023/05/30 08:51:15;;;;;;;0.63;0.20;;;14.60;99.90;;;;;;5047633;28;20044;-81
2023/05/30 08:53:51;;;;;;;0.28;0.20;;;14.60;99.90;;;;;;5048786;28;20072;-82
2023/05/30 08:56:28;;;;;;;0.25;0.10;;;14.60;99.90;;;;;;5047918;28;20132;-81
2023/05/30 08:58:57;;;;;;;0.77;0.13;;;14.60;99.90;;;;;;5052455;28;20048;-80
2023/05/30 09:01:24;;;;;;;0.85;0.30;;;14.60;99.90;;;;;;5067148;28;20048;-80
2023/05/30 09:03:51;;;;;;;0.73;0.20;;;14.50;99.90;;;;;;5051438;28;20211;-80
2023/05/30 09:06:18;;;;;;;0.63;0.20;;;14.60;99.90;;;;;;5068297;28;20284;-80
2023/05/30 09:08:45;;;;;;;0.45;0.22;;;14.60;99.90;;;;;;5049963;28;20127;-80
2023/05/30 09:11:13;;;;;;;3.00;1.02;;;14.70;99.90;;;;;;5069305;28;20044;-80
2023/05/30 09:13:41;;;;;;;0.43;0.30;;;14.80;99.90;;;;;;5065546;28;20053;-80
2023/05/30 09:16:07;;;;;;;0.88;0.55;;;14.80;99.90;;;;;;5052127;28;20078;-80
2023/05/30 09:18:34;;;;;;;2.15;0.60;;;14.90;99.90;;;;;;5066724;28;20094;-80
2023/05/30 09:21:00;;;;;;;0.90;0.20;;;13.30;99.90;;;;;;5067816;28;20536;-80
2023/05/30 09:23:27;;;;;;;3.40;0.30;;;14.80;99.90;;;;;;5034149;28;20110;-80
2023/05/30 09:25:52;;;;;;;1.25;0.30;;;14.70;99.90;;;;;;5049430;28;20067;-80
2023/05/30 09:28:26;;;;;;;2.00;0.30;;;14.70;99.90;;;;;;5035401;28;20044;-80
2023/05/30 09:31:00;;;;;;;0.30;0.20;;;14.60;99.90;;;;;;5065102;28;20039;-80
2023/05/30 09:33:47;;;;;;;0.45;0.28;;;14.50;99.90;;;;;;5051087;28;20346;-80
2023/05/30 09:36:20;;;;;;;1.05;0.30;;;14.30;99.90;;;;;;5066493;28;20483;-81
2023/05/30 09:38:56;;;;;;;0.73;0.10;;;14.10;99.90;;;;;;5066177;28;20036;-80
2023/05/30 09:41:23;;;;;;;2.25;0.30;;;14.00;99.90;;;;;;5051164;28;20504;-79
2023/05/30 09:43:55;;;;;;;0.35;0.20;;;13.80;99.90;;;;;;5064863;28;20044;-79
2023/05/30 09:46:26;;;;;;;2.25;0.40;;;13.70;99.90;;;;;;5067864;28;20463;-80
2023/05/30 09:48:52;;;;;;;1.75;0.22;;;13.60;99.90;;;;;;5065817;28;20130;-80
2023/05/30 09:51:21;;;;;;;0.40;0.40;;;13.60;99.90;;;;;;5066375;28;20044;-80
2023/05/30 09:53:54;;;;;;;1.25;0.28;;;13.70;99.90;;;;;;5067031;28;20487;-80
2023/05/30 09:56:20;;;;;;;2.58;0.30;;;13.80;99.90;;;;;;5047410;28;20055;-81
2023/05/30 09:58:46;;;;;;;0.40;0.20;;;14.20;99.90;;;;;;5050880;28;20052;-81
2023/05/30 10:01:17;;;;;;;3.88;0.30;;;14.50;99.90;;;;;;5064348;28;20044;-81
2023/05/30 10:03:44;;;;;;;1.02;0.20;;;14.80;99.90;;;;;;5050438;28;20071;-81
2023/05/30 10:06:14;;;;;;;1.30;0.20;;;14.90;99.90;;;;;;5066311;28;20496;-81
2023/05/30 10:08:45;;;;;;;1.23;0.10;;;14.90;99.90;;;;;;5048131;28;20092;-81
2023/05/30 10:11:12;;;;;;;0.60;0.30;;;14.80;99.90;;;;;;5066967;28;20051;-81
2023/05/30 10:13:38;;;;;;;0.52;0.20;;;14.80;99.90;;;;;;5064242;28;20059;-80
2023/05/30 10:16:10;;;;;;;1.35;0.17;;;14.60;99.90;;;;;;5050880;28;20055;-81
2023/05/30 10:18:41;;;;;;;0.17;0.10;;;14.50;99.90;;;;;;5065000;28;20127;-86
2023/05/30 10:21:09;;;;;;;2.00;0.20;;;14.50;99.90;;;;;;5066178;28;20196;-82
2023/05/30 10:23:35;;;;;;;0.15;0.15;;;14.60;99.90;;;;;;5067048;28;20158;-81
2023/05/30 10:26:04;;;;;;;1.20;0.30;;;14.60;99.90;;;;;;5063138;28;20130;-81
2023/05/30 10:28:33;;;;;;;0.50;0.30;;;14.60;99.90;;;;;;5067314;28;20040;-79
2023/05/30 10:31:01;;;;;;;1.65;0.20;;;14.50;99.90;;;;;;5047821;28;20040;-80
2023/05/30 10:33:30;;;;;;;1.50;0.20;;;14.60;99.90;;;;;;5050019;28;20122;-81
2023/05/30 10:35:56;;;;;;;0.45;0.28;;;14.60;99.90;;;;;;5065182;28;20122;-81
2023/05/30 10:38:26;;;;;;;0.35;0.20;;;14.60;99.90;;;;;;5048480;28;20093;-81
2023/05/30 10:41:06;;;;;;;0.57;0.30;;;14.60;99.90;;;;;;5050211;28;20406;-80
2023/05/30 10:43:47;;;;;;;2.33;0.30;;;14.70;99.90;;;;;;5063823;28;20051;-80
2023/05/30 10:46:24;;;;;;;0.57;0.35;;;14.80;99.90;;;;;;5050074;28;20044;-80
2023/05/30 10:49:07;;;;;;;0.28;0.17;;;14.90;99.90;;;;;;5065404;28;20040;-80
2023/05/30 10:52:02;;;;;;;1.05;0.38;;;14.90;99.90;;;;;;5064202;28;20090;-79
2023/05/30 10:54:33;;;;;;;0.30;0.20;;;15.10;99.90;;;;;;5066563;28;20105;-79
2023/05/30 10:57:01;;;;;;;2.30;0.32;;;15.20;99.90;;;;;;5031141;28;20339;-80
2023/05/30 10:59:27;;;;;;;0.40;0.22;;;15.20;99.90;;;;;;5049569;28;20040;-80
2023/05/30 11:02:04;;;;;;;0.65;0.40;;;15.30;99.90;;;;;;5049288;28;20200;-80
2023/05/30 11:04:36;;;;;;;0.28;0.20;;;15.30;99.90;;;;;;5063765;28;20040;-80
2023/05/30 11:07:06;;;;;;;1.98;0.30;;;15.20;99.90;;;;;;5066237;28;20044;-83
2023/05/30 11:09:32;;;;;;;0.85;0.40;;;15.10;99.90;;;;;;5047191;28;20032;-80
2023/05/30 11:12:00;;;;;;;1.88;0.60;;;15.10;99.90;;;;;;5066218;28;20044;-79
2023/05/30 11:14:31;;;;;;;0.57;0.40;;;14.40;99.90;;;;;;5031709;28;20051;-79
2023/05/30 11:17:02;;;;;;;0.70;0.47;;;15.00;99.90;;;;;;5064306;28;20059;-80
2023/05/30 11:19:43;;;;;;;0.75;0.28;;;14.80;99.90;;;;;;5066214;28;20542;-80
2023/05/30 11:22:17;;;;;;;0.40;0.30;;;15.10;99.90;;;;;;5047464;28;20123;-80
2023/05/30 11:24:45;;;;;;;0.50;0.30;;;15.00;99.90;;;;;;5049414;28;20456;-80
2023/05/30 11:27:14;;;;;;;0.60;0.50;;;15.00;99.90;;;;;;5063975;28;20044;-80
2023/05/30 11:29:49;;;;;;;0.55;0.40;;;15.10;99.90;;;;;;5065457;28;20216;-80
2023/05/30 11:32:20;;;;;;;0.40;0.40;;;15.20;99.90;;;;;;5065872;28;20082;-79
2023/05/30 11:34:56;;;;;;;0.73;0.40;;;15.40;99.90;;;;;;5062856;28;20411;-80
2023/05/30 11:37:22;;;;;;;0.45;0.45;;;15.60;99.90;;;;;;5066345;28;20051;-79
2023/05/30 11:39:48;;;;;;;1.00;0.35;;;15.90;99.90;;;;;;5067594;28;20051;-79
2023/05/30 11:42:14;;;;;;;1.92;0.25;;;16.10;99.90;;;;;;5053046;28;20097;-79
2023/05/30 11:44:42;;;;;;;0.50;0.30;;;16.10;99.90;;;;;;5051971;28;20036;-79
2023/05/30 11:47:10;;;;;;;0.95;0.25;;;16.00;99.90;;;;;;5067568;28;20040;-80
2023/05/30 11:49:36;;;;;;;0.60;0.20;;;15.90;99.90;;;;;;5069901;28;20048;-79
2023/05/30 11:52:02;;;;;;;0.40;0.20;;;15.80;99.90;;;;;;5066994;28;20040;-79
2023/05/30 11:54:28;;;;;;;5.03;0.40;;;15.60;99.90;;;;;;5052860;28;20040;-79
2023/05/30 11:56:57;;;;;;;1.02;0.60;;;15.50;99.90;;;;;;5066978;28;20048;-80
2023/05/30 11:59:24;;;;;;;0.63;0.40;;;15.30;99.90;;;;;;5052514;28;20165;-79
2023/05/30 12:01:58;;;;;;;1.00;0.43;;;15.10;99.90;;;;;;5035464;28;20518;-78
2023/05/30 12:04:26;;;;;;;1.05;0.30;;;15.10;99.90;;;;;;5066774;28;20052;-79
2023/05/30 12:06:56;;;;;;;1.15;0.40;;;15.10;99.90;;;;;;5052918;28;20048;-79
2023/05/30 12:09:21;;;;;;;1.65;0.40;;;15.20;99.90;;;;;;5033487;28;20171;-79
2023/05/30 12:11:52;;;;;;;0.45;0.30;;;16.20;99.90;;;;;;5052680;28;20083;-79
2023/05/30 12:14:18;;;;;;;1.92;1.00;;;15.50;99.90;;;;;;5051116;28;20047;-78
2023/05/30 12:16:44;;;;;;;0.82;0.45;;;15.80;99.90;;;;;;5067709;28;20052;-79
2023/05/30 12:19:10;;;;;;;0.52;0.30;;;16.00;99.90;;;;;;5052114;28;20068;-79
2023/05/30 12:21:36;;;;;;;1.05;0.38;;;16.30;99.90;;;;;;5066695;28;20040;-78
2023/05/30 12:24:13;;;;;;;2.30;0.22;;;16.40;99.90;;;;;;5069228;28;20055;-78
2023/05/30 12:26:47;;;;;;;0.47;0.30;;;16.50;99.90;;;;;;5067750;28;20056;-78
2023/05/30 12:29:12;;;;;;;2.78;0.32;;;16.60;99.90;;;;;;5052994;28;20182;-79
2023/05/30 12:31:38;;;;;;;0.57;0.40;;;16.50;99.90;;;;;;5051702;28;20503;-79
2023/05/30 12:34:04;;;;;;;0.52;0.28;;;16.40;99.90;;;;;;5050556;28;20495;-79
2023/05/30 12:36:30;;;;;;;1.60;1.08;;;16.40;99.90;;;;;;5052555;28;20104;-79
2023/05/30 12:38:57;;;;;;;0.52;0.40;;;16.20;99.90;;;;;;5066699;28;20138;-79
2023/05/30 12:41:27;;;;;;;0.63;0.32;;;16.10;99.90;;;;;;5052331;28;20040;-78
2023/05/30 12:43:55;;;;;;;0.50;0.30;;;16.00;99.90;;;;;;5049836;28;20044;-79
2023/05/30 12:46:21;;;;;;;0.50;0.40;;;15.90;99.90;;;;;;5069221;28;20058;-79
2023/05/30 12:48:47;;;;;;;2.92;0.60;;;15.80;99.90;;;;;;5033912;28;20044;-80